Time;durP1;ratioP1;P1;durP2;ratioP2;P2;SDS_P1;SDS_P2;PMS_P1;PMS_P2;Temp;Humidity;BMP_temperature;BMP_pressure;BME280_temperature;BME280_humidity;BME280_pressure;Samples;Min_cycle;Max_cycle;Signal;HPM_P1;HPM_P2
2021/07/19 00:02:25;;;;;;;4.60;3.80;;;;;;;;;;5095360;28;20196;-62
2021/07/19 00:04:53;;;;;;;7.07;4.25;;;;;;;;;;5095078;28;20253;-63
2021/07/19 00:07:21;;;;;;;4.53;3.42;;;;;;;;;;5094948;28;20294;-61
2021/07/19 00:09:49;;;;;;;6.32;3.70;;;;;;;;;;5095333;28;20291;-62
2021/07/19 00:12:19;;;;;;;6.13;3.80;;;;;;;;;;5095205;28;20226;-62
2021/07/19 00:14:48;;;;;;;6.15;3.58;;;;;;;;;;5095059;28;20216;-61
2021/07/19 00:17:17;;;;;;;7.50;4.07;;;;;;;;;;5095093;28;20202;-62
2021/07/19 00:19:46;;;;;;;5.55;3.50;;;;;;;;;;5093733;28;20196;-62
2021/07/19 00:22:14;;;;;;;4.10;3.45;;;;;;;;;;5095191;28;20196;-61
2021/07/19 00:24:42;;;;;;;3.67;3.20;;;;;;;;;;5096372;28;20693;-62
2021/07/19 00:27:10;;;;;;;4.38;3.80;;;;;;;;;;5096136;28;20214;-62
2021/07/19 00:29:40;;;;;;;4.70;3.40;;;;;;;;;;5095190;28;20200;-62
2021/07/19 00:32:08;;;;;;;3.45;3.15;;;;;;;;;;5094985;28;20207;-62
2021/07/19 00:34:37;;;;;;;4.15;3.30;;;;;;;;;;5095051;28;20295;-61
2021/07/19 00:37:05;;;;;;;3.97;2.85;;;;;;;;;;5095320;28;20283;-61
2021/07/19 00:39:34;;;;;;;5.00;3.10;;;;;;;;;;5095506;28;20516;-62
2021/07/19 00:42:02;;;;;;;4.55;3.20;;;;;;;;;;5095088;28;20602;-61
2021/07/19 00:44:30;;;;;;;6.18;3.17;;;;;;;;;;5094604;28;20200;-62
2021/07/19 00:47:00;;;;;;;6.68;3.10;;;;;;;;;;5095556;28;20206;-61
2021/07/19 00:49:32;;;;;;;5.78;3.00;;;;;;;;;;5074934;28;20783;-62
2021/07/19 00:52:00;;;;;;;4.53;3.22;;;;;;;;;;5074577;28;20235;-61
2021/07/19 00:54:30;;;;;;;3.45;3.05;;;;;;;;;;5074881;28;20200;-62
2021/07/19 00:56:59;;;;;;;4.15;3.03;;;;;;;;;;5075286;28;20200;-62
2021/07/19 00:59:28;;;;;;;5.00;3.25;;;;;;;;;;5074826;28;20201;-62
2021/07/19 01:01:56;;;;;;;5.65;3.40;;;;;;;;;;5074103;28;20200;-62
2021/07/19 01:04:26;;;;;;;4.88;3.20;;;;;;;;;;5073507;28;20200;-61
2021/07/19 01:06:57;;;;;;;3.65;2.92;;;;;;;;;;5073612;28;20237;-61
2021/07/19 01:09:28;;;;;;;3.90;3.10;;;;;;;;;;5074056;28;20633;-61
2021/07/19 01:11:57;;;;;;;6.75;3.38;;;;;;;;;;5073730;28;20677;-62
2021/07/19 01:14:26;;;;;;;4.40;3.20;;;;;;;;;;5074389;28;20196;-61
2021/07/19 01:16:54;;;;;;;4.28;3.42;;;;;;;;;;5074714;28;20220;-61
2021/07/19 01:19:23;;;;;;;6.72;3.70;;;;;;;;;;5094249;28;20235;-61
2021/07/19 01:22:10;;;;;;;5.75;3.50;;;;;;;;;;5094003;28;20259;-62
2021/07/19 01:24:40;;;;;;;5.82;3.53;;;;;;;;;;5094054;28;20185;-61
2021/07/19 01:27:21;;;;;;;4.30;3.38;;;;;;;;;;5094137;28;20184;-62
2021/07/19 01:29:51;;;;;;;4.35;3.50;;;;;;;;;;5093498;28;20699;-61
2021/07/19 01:32:21;;;;;;;4.28;3.33;;;;;;;;;;5093559;28;20199;-61
2021/07/19 01:34:51;;;;;;;5.35;3.40;;;;;;;;;;5093261;28;20711;-61
2021/07/19 01:37:20;;;;;;;4.18;3.50;;;;;;;;;;5093691;28;20195;-61
2021/07/19 01:39:49;;;;;;;6.80;3.50;;;;;;;;;;5093613;28;20670;-62
2021/07/19 01:42:17;;;;;;;5.65;3.58;;;;;;;;;;5093163;28;20207;-62
2021/07/19 01:44:45;;;;;;;5.20;3.17;;;;;;;;;;5093544;28;20667;-60
2021/07/19 01:47:15;;;;;;;4.50;3.50;;;;;;;;;;5093069;28;20192;-61
2021/07/19 01:49:43;;;;;;;4.80;3.50;;;;;;;;;;5093274;28;20196;-63
2021/07/19 01:52:13;;;;;;;3.70;3.40;;;;;;;;;;5093114;28;20228;-60
2021/07/19 01:54:42;;;;;;;4.53;3.78;;;;;;;;;;5093343;28;20195;-61
2021/07/19 01:57:11;;;;;;;5.85;3.60;;;;;;;;;;5093207;28;20318;-62
2021/07/19 01:59:39;;;;;;;4.82;3.70;;;;;;;;;;5093148;28;20227;-62
2021/07/19 02:02:08;;;;;;;5.35;3.63;;;;;;;;;;5093149;28;20196;-61
2021/07/19 02:04:38;;;;;;;4.13;3.60;;;;;;;;;;5093065;28;20199;-63
2021/07/19 02:07:07;;;;;;;5.88;3.67;;;;;;;;;;5093141;28;20290;-61
2021/07/19 02:09:35;;;;;;;3.85;3.50;;;;;;;;;;5092911;28;20207;-61
2021/07/19 02:12:05;;;;;;;5.60;3.88;;;;;;;;;;5093047;28;20204;-62
2021/07/19 02:14:33;;;;;;;5.38;4.07;;;;;;;;;;5092939;28;20295;-63
2021/07/19 02:17:02;;;;;;;4.68;3.78;;;;;;;;;;5092901;28;20218;-61
2021/07/19 02:19:31;;;;;;;4.65;3.83;;;;;;;;;;5092893;28;20219;-62
2021/07/19 02:22:01;;;;;;;5.47;4.07;;;;;;;;;;5092705;28;20562;-62
2021/07/19 02:24:29;;;;;;;5.07;3.88;;;;;;;;;;5093017;28;20186;-61
2021/07/19 02:26:58;;;;;;;4.90;4.05;;;;;;;;;;5092998;28;20202;-61
2021/07/19 02:29:27;;;;;;;6.00;4.10;;;;;;;;;;5092881;28;20199;-62
2021/07/19 02:31:56;;;;;;;4.50;4.10;;;;;;;;;;5092515;28;20295;-62
2021/07/19 02:34:24;;;;;;;5.25;3.83;;;;;;;;;;5092557;28;20234;-62
2021/07/19 02:36:53;;;;;;;6.55;4.45;;;;;;;;;;5092452;28;20216;-61
2021/07/19 02:39:23;;;;;;;5.03;4.38;;;;;;;;;;5093001;28;20295;-61
2021/07/19 02:41:52;;;;;;;6.13;4.10;;;;;;;;;;5092770;28;20215;-62
2021/07/19 02:44:20;;;;;;;5.55;4.55;;;;;;;;;;5096691;28;20204;-62
2021/07/19 02:46:50;;;;;;;4.97;4.15;;;;;;;;;;5096653;28;20682;-61
2021/07/19 02:49:18;;;;;;;7.32;5.00;;;;;;;;;;5096463;28;20200;-61
2021/07/19 02:51:47;;;;;;;6.47;4.57;;;;;;;;;;5096850;28;20277;-62
2021/07/19 02:54:17;;;;;;;6.25;4.55;;;;;;;;;;5096633;28;20577;-61
2021/07/19 02:56:47;;;;;;;8.15;5.35;;;;;;;;;;5096809;28;20222;-61
2021/07/19 02:59:15;;;;;;;7.88;5.28;;;;;;;;;;5096670;28;20288;-62
2021/07/19 03:01:44;;;;;;;11.02;5.28;;;;;;;;;;5096267;28;20214;-61
2021/07/19 03:04:13;;;;;;;8.25;5.45;;;;;;;;;;5096146;28;20238;-62
2021/07/19 03:06:42;;;;;;;8.18;5.63;;;;;;;;;;5096436;28;20291;-61
2021/07/19 03:09:13;;;;;;;9.98;5.75;;;;;;;;;;5096604;28;20200;-61
2021/07/19 03:11:42;;;;;;;8.52;6.00;;;;;;;;;;5096346;28;20266;-62
2021/07/19 03:14:14;;;;;;;6.20;5.47;;;;;;;;;;5096146;28;20287;-61
2021/07/19 03:16:43;;;;;;;7.70;5.20;;;;;;;;;;5096393;28;20200;-62
2021/07/19 03:19:14;;;;;;;7.50;5.35;;;;;;;;;;5095954;28;20201;-61
2021/07/19 03:21:43;;;;;;;8.90;5.55;;;;;;;;;;5096160;28;20195;-61
2021/07/19 03:24:12;;;;;;;7.88;6.00;;;;;;;;;;5096045;28;20200;-62
2021/07/19 03:26:41;;;;;;;6.90;5.70;;;;;;;;;;5096054;28;20196;-61
2021/07/19 03:29:11;;;;;;;9.68;6.22;;;;;;;;;;5095894;28;20294;-63
2021/07/19 03:31:41;;;;;;;8.93;6.20;;;;;;;;;;5095923;28;20202;-62
2021/07/19 03:34:11;;;;;;;7.47;5.80;;;;;;;;;;5095664;28;20517;-61
2021/07/19 03:36:39;;;;;;;8.25;6.18;;;;;;;;;;5095707;28;20306;-61
2021/07/19 03:39:08;;;;;;;9.30;6.57;;;;;;;;;;5095435;28;20860;-63
2021/07/19 03:41:36;;;;;;;7.72;5.80;;;;;;;;;;5095705;28;20200;-61
2021/07/19 03:44:05;;;;;;;7.38;6.07;;;;;;;;;;5095688;28;20210;-62
2021/07/19 03:46:33;;;;;;;7.05;5.85;;;;;;;;;;5095674;28;20282;-61
2021/07/19 03:49:03;;;;;;;7.60;5.80;;;;;;;;;;5095382;28;20254;-62
2021/07/19 03:51:32;;;;;;;10.65;6.30;;;;;;;;;;5095349;28;20224;-62
2021/07/19 03:54:00;;;;;;;9.65;5.65;;;;;;;;;;5093781;28;20759;-62
2021/07/19 03:56:29;;;;;;;7.40;6.00;;;;;;;;;;5095337;28;20241;-62
2021/07/19 03:58:57;;;;;;;9.00;6.20;;;;;;;;;;5095225;28;20564;-61
2021/07/19 04:01:26;;;;;;;9.40;6.15;;;;;;;;;;5095405;28;20200;-62
2021/07/19 04:04:03;;;;;;;9.63;5.90;;;;;;;;;;5095254;28;20204;-62
2021/07/19 04:06:33;;;;;;;9.32;5.63;;;;;;;;;;5095403;28;20291;-62
2021/07/19 04:09:02;;;;;;;9.43;5.60;;;;;;;;;;5094692;28;20203;-61
2021/07/19 04:11:30;;;;;;;6.70;5.30;;;;;;;;;;5095168;28;20203;-62
2021/07/19 04:13:59;;;;;;;11.95;5.38;;;;;;;;;;5094855;28;20202;-61
2021/07/19 04:16:27;;;;;;;11.02;5.60;;;;;;;;;;5094802;28;20709;-61
2021/07/19 04:18:55;;;;;;;9.68;5.43;;;;;;;;;;5095024;28;20200;-62
2021/07/19 04:21:24;;;;;;;7.78;5.03;;;;;;;;;;5095070;28;20616;-61
2021/07/19 04:23:53;;;;;;;8.63;5.28;;;;;;;;;;5094960;28;20207;-62
2021/07/19 04:26:22;;;;;;;9.45;5.50;;;;;;;;;;5095126;28;20196;-62
2021/07/19 04:28:50;;;;;;;8.02;5.25;;;;;;;;;;5094731;28;20291;-61
2021/07/19 04:31:19;;;;;;;8.73;5.15;;;;;;;;;;5094857;28;20199;-61
2021/07/19 04:33:49;;;;;;;10.02;5.30;;;;;;;;;;5094307;28;20674;-61
2021/07/19 04:36:18;;;;;;;9.07;5.10;;;;;;;;;;5094616;28;20275;-61
2021/07/19 04:38:47;;;;;;;10.38;5.28;;;;;;;;;;5094245;28;20577;-61
2021/07/19 04:41:19;;;;;;;8.88;5.28;;;;;;;;;;5094602;28;20599;-62
2021/07/19 04:43:48;;;;;;;11.63;5.05;;;;;;;;;;5094086;28;20187;-61
2021/07/19 04:46:16;;;;;;;12.00;5.30;;;;;;;;;;5094096;28;20196;-61
2021/07/19 04:48:46;;;;;;;11.35;5.05;;;;;;;;;;5094053;28;20257;-61
2021/07/19 04:51:14;;;;;;;8.45;4.63;;;;;;;;;;5093873;28;20626;-61
2021/07/19 04:53:43;;;;;;;8.18;5.25;;;;;;;;;;5094504;28;20204;-61
2021/07/19 04:56:12;;;;;;;12.45;5.88;;;;;;;;;;5094371;28;20299;-62
2021/07/19 04:58:42;;;;;;;8.02;4.72;;;;;;;;;;5094138;28;20223;-61
2021/07/19 05:01:10;;;;;;;8.35;4.88;;;;;;;;;;5094324;28;20195;-61
2021/07/19 05:03:42;;;;;;;11.88;5.30;;;;;;;;;;5094411;28;20200;-63
2021/07/19 05:06:11;;;;;;;10.27;5.38;;;;;;;;;;5093511;28;20589;-61
2021/07/19 05:08:41;;;;;;;9.57;5.25;;;;;;;;;;5093726;28;20743;-61
2021/07/19 05:11:09;;;;;;;8.07;4.95;;;;;;;;;;5093705;28;20203;-61
2021/07/19 05:13:38;;;;;;;6.90;4.80;;;;;;;;;;5093704;28;20196;-61
2021/07/19 05:16:08;;;;;;;7.82;5.00;;;;;;;;;;5093798;28;20695;-62
2021/07/19 05:18:36;;;;;;;10.48;5.22;;;;;;;;;;5093639;28;20228;-62
2021/07/19 05:21:05;;;;;;;10.90;4.88;;;;;;;;;;5093687;28;20282;-62
2021/07/19 05:23:33;;;;;;;8.25;5.40;;;;;;;;;;5093415;28;20202;-64
2021/07/19 05:26:01;;;;;;;9.63;5.20;;;;;;;;;;5093653;28;20196;-62
2021/07/19 05:28:29;;;;;;;9.23;4.63;;;;;;;;;;5093538;28;20231;-61
2021/07/19 05:30:58;;;;;;;10.23;5.28;;;;;;;;;;5093194;28;20264;-62
2021/07/19 05:33:27;;;;;;;10.57;4.30;;;;;;;;;;5093178;28;20298;-62
2021/07/19 05:35:55;;;;;;;8.43;4.43;;;;;;;;;;5093512;28;20210;-61
2021/07/19 05:38:24;;;;;;;6.93;4.25;;;;;;;;;;5093555;28;20249;-61
2021/07/19 05:40:52;;;;;;;7.82;4.10;;;;;;;;;;5093601;28;20291;-61
2021/07/19 05:43:20;;;;;;;7.65;4.00;;;;;;;;;;5094166;28;20196;-62
2021/07/19 05:45:49;;;;;;;7.70;3.85;;;;;;;;;;5096432;28;20200;-61
2021/07/19 05:48:17;;;;;;;8.55;3.70;;;;;;;;;;5095927;28;20235;-62
2021/07/19 05:50:46;;;;;;;8.73;3.47;;;;;;;;;;5093161;28;20224;-63
2021/07/19 05:53:15;;;;;;;7.95;3.72;;;;;;;;;;5093192;28;20275;-62
2021/07/19 05:55:44;;;;;;;8.88;3.30;;;;;;;;;;5093290;28;20204;-63
2021/07/19 05:58:12;;;;;;;6.97;3.80;;;;;;;;;;5093044;28;20212;-63
2021/07/19 06:00:40;;;;;;;9.80;4.10;;;;;;;;;;5092878;28;20647;-62
2021/07/19 06:03:08;;;;;;;7.68;4.30;;;;;;;;;;5093127;28;20208;-62
2021/07/19 06:05:37;;;;;;;9.60;4.15;;;;;;;;;;5092980;28;20325;-62
2021/07/19 06:08:07;;;;;;;9.32;4.13;;;;;;;;;;5092855;28;20789;-63
2021/07/19 06:10:35;;;;;;;8.60;4.60;;;;;;;;;;5093326;28;20211;-62
2021/07/19 06:13:04;;;;;;;9.43;4.63;;;;;;;;;;5092706;28;20288;-63
2021/07/19 06:15:32;;;;;;;7.20;4.18;;;;;;;;;;5092919;28;20288;-63
2021/07/19 06:18:00;;;;;;;7.10;3.75;;;;;;;;;;5092001;28;20273;-63
2021/07/19 06:20:29;;;;;;;11.80;4.32;;;;;;;;;;5092942;28;20290;-63
2021/07/19 06:23:01;;;;;;;7.20;4.03;;;;;;;;;;5092871;28;20286;-63
2021/07/19 06:25:31;;;;;;;7.75;3.78;;;;;;;;;;5092825;28;20536;-63
2021/07/19 06:28:00;;;;;;;7.53;3.80;;;;;;;;;;5092722;28;20589;-63
2021/07/19 06:30:28;;;;;;;11.65;4.10;;;;;;;;;;5092803;28;20208;-62
2021/07/19 06:32:56;;;;;;;11.00;4.03;;;;;;;;;;5092827;28;20208;-63
2021/07/19 06:35:25;;;;;;;6.65;3.63;;;;;;;;;;5092348;28;20200;-64
2021/07/19 06:37:53;;;;;;;7.40;3.67;;;;;;;;;;5092240;28;20204;-63
2021/07/19 06:40:21;;;;;;;9.63;3.60;;;;;;;;;;5092563;28;20742;-62
2021/07/19 06:42:51;;;;;;;6.10;4.07;;;;;;;;;;5092636;28;20318;-63
2021/07/19 06:45:19;;;;;;;6.65;3.50;;;;;;;;;;5092818;28;20333;-62
2021/07/19 06:47:47;;;;;;;7.93;4.47;;;;;;;;;;5092700;28;20275;-63
2021/07/19 06:50:16;;;;;;;6.00;3.80;;;;;;;;;;5092402;28;20291;-62
2021/07/19 06:52:44;;;;;;;5.97;3.60;;;;;;;;;;5092379;28;20223;-61
2021/07/19 06:55:12;;;;;;;7.65;3.78;;;;;;;;;;5092683;28;20561;-62
2021/07/19 06:57:41;;;;;;;8.40;3.78;;;;;;;;;;5092247;28;20196;-62
2021/07/19 07:00:12;;;;;;;7.25;3.90;;;;;;;;;;5092468;28;20307;-62
2021/07/19 07:02:40;;;;;;;9.57;4.00;;;;;;;;;;5092480;28;20272;-61
2021/07/19 07:05:09;;;;;;;8.65;3.95;;;;;;;;;;5092386;28;20207;-62
2021/07/19 07:07:37;;;;;;;8.65;3.88;;;;;;;;;;5092074;28;20291;-61
2021/07/19 07:10:06;;;;;;;7.78;3.90;;;;;;;;;;5092287;28;20318;-61
2021/07/19 07:12:35;;;;;;;7.60;4.00;;;;;;;;;;5091936;28;20679;-62
2021/07/19 07:15:04;;;;;;;5.68;3.63;;;;;;;;;;5092126;28;20832;-61
2021/07/19 07:17:34;;;;;;;5.13;3.33;;;;;;;;;;5092483;28;20287;-61
2021/07/19 07:20:02;;;;;;;7.68;3.55;;;;;;;;;;5091792;28;20256;-62
2021/07/19 07:22:30;;;;;;;6.40;4.00;;;;;;;;;;5092517;28;20243;-61
2021/07/19 07:24:58;;;;;;;9.43;3.88;;;;;;;;;;5092290;28;20901;-61
2021/07/19 07:27:26;;;;;;;6.35;3.70;;;;;;;;;;5091735;28;20208;-62
2021/07/19 07:29:55;;;;;;;7.25;3.42;;;;;;;;;;5095347;28;20279;-62
2021/07/19 07:32:23;;;;;;;7.00;3.15;;;;;;;;;;5095870;28;20199;-61
2021/07/19 07:34:52;;;;;;;6.45;3.70;;;;;;;;;;5095500;28;20210;-62
2021/07/19 07:37:20;;;;;;;5.88;3.00;;;;;;;;;;5095436;28;20201;-62
2021/07/19 07:39:49;;;;;;;7.03;3.88;;;;;;;;;;5095711;28;20311;-62
2021/07/19 07:42:17;;;;;;;6.82;3.58;;;;;;;;;;5095422;28;20671;-62
2021/07/19 07:44:45;;;;;;;8.20;3.25;;;;;;;;;;5095663;28;20202;-62
2021/07/19 07:47:13;;;;;;;7.55;3.83;;;;;;;;;;5095391;28;20216;-62
2021/07/19 07:49:41;;;;;;;6.60;3.53;;;;;;;;;;5095541;28;20203;-61
2021/07/19 07:52:12;;;;;;;7.22;3.65;;;;;;;;;;5095338;28;20223;-62
2021/07/19 07:54:41;;;;;;;4.50;3.42;;;;;;;;;;5095484;28;20188;-62
2021/07/19 07:57:09;;;;;;;9.63;3.88;;;;;;;;;;5095393;28;20283;-63
2021/07/19 07:59:37;;;;;;;7.57;3.78;;;;;;;;;;5095150;28;20226;-63
2021/07/19 08:02:07;;;;;;;7.13;4.00;;;;;;;;;;5095339;28;20668;-62
2021/07/19 08:04:36;;;;;;;5.68;3.78;;;;;;;;;;5095727;28;20196;-61
2021/07/19 08:07:05;;;;;;;7.13;3.67;;;;;;;;;;5095197;28;20231;-61
2021/07/19 08:09:34;;;;;;;8.63;4.32;;;;;;;;;;5095525;28;20192;-62
2021/07/19 08:12:03;;;;;;;7.97;4.20;;;;;;;;;;5095220;28;20208;-62
2021/07/19 08:14:31;;;;;;;7.32;3.90;;;;;;;;;;5095463;28;20615;-62
2021/07/19 08:17:00;;;;;;;6.63;4.03;;;;;;;;;;5095434;28;20231;-62
2021/07/19 08:19:32;;;;;;;6.07;4.05;;;;;;;;;;5095917;28;20226;-61
2021/07/19 08:22:01;;;;;;;7.28;4.28;;;;;;;;;;5096226;28;20271;-61
2021/07/19 08:24:32;;;;;;;7.22;4.32;;;;;;;;;;5095702;28;20204;-61
2021/07/19 08:27:02;;;;;;;7.13;4.13;;;;;;;;;;5095889;28;20222;-61
2021/07/19 08:29:31;;;;;;;8.55;4.70;;;;;;;;;;5095675;28;20183;-62
2021/07/19 08:31:59;;;;;;;7.05;4.63;;;;;;;;;;5095519;28;20295;-62
2021/07/19 08:34:28;;;;;;;7.65;4.72;;;;;;;;;;5094798;28;20260;-62
2021/07/19 08:36:56;;;;;;;8.32;4.60;;;;;;;;;;5094831;28;20255;-62
2021/07/19 08:39:24;;;;;;;8.38;4.05;;;;;;;;;;5094423;28;20216;-63
2021/07/19 08:41:53;;;;;;;4.93;4.15;;;;;;;;;;5094418;28;20222;-62
2021/07/19 08:44:22;;;;;;;6.65;4.63;;;;;;;;;;5094241;28;20204;-62
2021/07/19 08:46:51;;;;;;;8.35;4.45;;;;;;;;;;5094331;28;20200;-62
2021/07/19 08:49:19;;;;;;;6.97;4.65;;;;;;;;;;5094506;28;20204;-62
2021/07/19 08:51:47;;;;;;;6.78;4.45;;;;;;;;;;5094205;28;20240;-62
2021/07/19 08:54:15;;;;;;;7.35;4.57;;;;;;;;;;5094499;28;20200;-61
2021/07/19 08:56:43;;;;;;;9.43;4.53;;;;;;;;;;5094428;28;20199;-62
2021/07/19 08:59:17;;;;;;;7.40;4.55;;;;;;;;;;5094265;28;20243;-61
2021/07/19 09:01:46;;;;;;;9.32;4.88;;;;;;;;;;5094079;28;20752;-63
2021/07/19 09:04:18;;;;;;;6.47;5.18;;;;;;;;;;5093840;28;20280;-60
2021/07/19 09:06:46;;;;;;;6.78;4.57;;;;;;;;;;5094272;28;20584;-62
2021/07/19 09:09:14;;;;;;;8.02;4.65;;;;;;;;;;5094282;28;20893;-62
2021/07/19 09:11:50;;;;;;;7.35;5.18;;;;;;;;;;5093912;28;20204;-61
2021/07/19 09:14:18;;;;;;;7.15;4.50;;;;;;;;;;5093973;28;20199;-61
2021/07/19 09:16:48;;;;;;;6.05;4.15;;;;;;;;;;5094089;28;20286;-61
2021/07/19 09:19:17;;;;;;;4.43;3.75;;;;;;;;;;5093697;28;20218;-61
2021/07/19 09:21:46;;;;;;;8.18;4.32;;;;;;;;;;5093676;28;20291;-60
2021/07/19 09:24:19;;;;;;;5.55;4.40;;;;;;;;;;5093637;28;20219;-62
2021/07/19 09:26:48;;;;;;;7.30;4.07;;;;;;;;;;5093540;28;20294;-62
2021/07/19 09:29:19;;;;;;;7.25;4.20;;;;;;;;;;5093825;28;20295;-62
2021/07/19 09:31:52;;;;;;;6.32;3.42;;;;;;;;;;5093725;28;20181;-62
2021/07/19 09:34:21;;;;;;;6.78;3.33;;;;;;;;;;5093410;28;20188;-62
2021/07/19 09:36:56;;;;;;;6.40;3.42;;;;;;;;;;5093678;28;20266;-62
2021/07/19 09:39:24;;;;;;;5.25;3.50;;;;;;;;;;5093427;28;20249;-61
2021/07/19 09:41:53;;;;;;;5.47;3.60;;;;;;;;;;5093544;28;20215;-61
2021/07/19 09:44:24;;;;;;;4.68;3.63;;;;;;;;;;5093362;28;20294;-63
2021/07/19 09:46:59;;;;;;;5.30;3.40;;;;;;;;;;5093611;28;20279;-62
2021/07/19 09:49:29;;;;;;;6.68;3.47;;;;;;;;;;5072856;28;20188;-62
2021/07/19 09:52:02;;;;;;;7.13;3.53;;;;;;;;;;5072354;28;20236;-62
2021/07/19 09:54:34;;;;;;;4.63;2.92;;;;;;;;;;5072827;28;20276;-62
2021/07/19 09:57:03;;;;;;;7.35;3.33;;;;;;;;;;5072600;28;20204;-61
2021/07/19 09:59:33;;;;;;;4.53;3.47;;;;;;;;;;5072719;28;20212;-60
2021/07/19 10:02:03;;;;;;;7.30;3.30;;;;;;;;;;5073107;28;20288;-62
2021/07/19 10:04:31;;;;;;;5.97;3.53;;;;;;;;;;5072690;28;20228;-60
2021/07/19 10:07:00;;;;;;;7.07;3.40;;;;;;;;;;5072600;28;20218;-61
2021/07/19 10:09:29;;;;;;;6.45;3.22;;;;;;;;;;5072784;28;20209;-62
2021/07/19 10:11:57;;;;;;;5.00;3.20;;;;;;;;;;5072861;28;20538;-61
2021/07/19 10:14:28;;;;;;;8.77;3.45;;;;;;;;;;5072415;28;20292;-61
2021/07/19 10:16:57;;;;;;;5.82;3.40;;;;;;;;;;5072357;28;20196;-62
2021/07/19 10:19:27;;;;;;;6.93;4.13;;;;;;;;;;5072635;28;20255;-62
2021/07/19 10:21:55;;;;;;;5.45;3.78;;;;;;;;;;5072630;28;20311;-62
2021/07/19 10:24:24;;;;;;;8.07;3.80;;;;;;;;;;5072394;28;20580;-62
2021/07/19 10:26:52;;;;;;;6.13;4.05;;;;;;;;;;5072563;28;20287;-62
2021/07/19 10:29:20;;;;;;;4.70;3.60;;;;;;;;;;5072433;28;20211;-61
2021/07/19 10:31:48;;;;;;;5.63;3.63;;;;;;;;;;5072649;28;20204;-61
2021/07/19 10:34:19;;;;;;;6.45;4.03;;;;;;;;;;5072055;28;20236;-62
2021/07/19 10:36:53;;;;;;;6.57;4.22;;;;;;;;;;5077187;28;20200;-61
2021/07/19 10:39:26;;;;;;;6.63;4.03;;;;;;;;;;5092482;28;20274;-62
2021/07/19 10:42:01;;;;;;;8.07;4.03;;;;;;;;;;5092638;28;20204;-61
2021/07/19 10:44:33;;;;;;;5.18;3.80;;;;;;;;;;5092766;28;20299;-61
2021/07/19 10:47:11;;;;;;;8.18;3.72;;;;;;;;;;5092526;28;20275;-62
2021/07/19 10:49:41;;;;;;;5.97;3.75;;;;;;;;;;5092676;28;20188;-62
2021/07/19 10:52:12;;;;;;;4.05;3.53;;;;;;;;;;5092354;28;20223;-62
2021/07/19 10:54:48;;;;;;;8.27;3.88;;;;;;;;;;5095825;28;20191;-62
2021/07/19 10:57:18;;;;;;;6.25;3.90;;;;;;;;;;5097592;28;20238;-61
2021/07/19 10:59:46;;;;;;;6.25;3.95;;;;;;;;;;5096926;28;20230;-62
2021/07/19 11:02:28;;;;;;;6.90;3.85;;;;;;;;;;5092147;28;20224;-62
2021/07/19 11:04:57;;;;;;;5.35;3.67;;;;;;;;;;5095722;28;20186;-62
2021/07/19 11:07:27;;;;;;;3.72;3.40;;;;;;;;;;5096372;28;20200;-61
2021/07/19 11:09:55;;;;;;;5.70;3.47;;;;;;;;;;5096024;28;20294;-61
2021/07/19 11:12:24;;;;;;;5.18;3.45;;;;;;;;;;5095840;28;20239;-62
2021/07/19 11:14:55;;;;;;;5.50;3.00;;;;;;;;;;5096010;28;20242;-62
2021/07/19 11:17:23;;;;;;;7.07;3.45;;;;;;;;;;5096223;28;20291;-61
2021/07/19 11:19:55;;;;;;;8.00;3.50;;;;;;;;;;5096197;28;20298;-62
2021/07/19 11:22:25;;;;;;;4.13;3.00;;;;;;;;;;5095805;28;20208;-61
2021/07/19 11:24:55;;;;;;;4.50;3.22;;;;;;;;;;5095991;28;20207;-62
2021/07/19 11:27:30;;;;;;;5.88;3.30;;;;;;;;;;5095728;28;20272;-62
2021/07/19 11:30:00;;;;;;;5.20;3.10;;;;;;;;;;5095599;28;20203;-62
2021/07/19 11:32:33;;;;;;;7.82;3.28;;;;;;;;;;5096050;28;20216;-62
2021/07/19 11:35:09;;;;;;;7.93;3.22;;;;;;;;;;5095528;28;20214;-61
2021/07/19 11:37:38;;;;;;;4.25;2.65;;;;;;;;;;5095436;28;20667;-62
2021/07/19 11:40:09;;;;;;;5.65;3.20;;;;;;;;;;5095906;28;20293;-62
2021/07/19 11:42:41;;;;;;;3.65;2.70;;;;;;;;;;5095574;28;20294;-61
2021/07/19 11:45:11;;;;;;;4.25;2.97;;;;;;;;;;5096042;28;20184;-61
2021/07/19 11:47:43;;;;;;;5.20;3.25;;;;;;;;;;5096077;28;20291;-61
2021/07/19 11:50:12;;;;;;;3.53;2.90;;;;;;;;;;5095403;28;20200;-62
2021/07/19 11:52:41;;;;;;;4.15;2.58;;;;;;;;;;5095128;28;20231;-62
2021/07/19 11:55:12;;;;;;;3.92;2.85;;;;;;;;;;5095363;28;20610;-62
2021/07/19 11:57:43;;;;;;;6.20;3.35;;;;;;;;;;5095338;28;20286;-62
2021/07/19 12:00:13;;;;;;;4.60;2.83;;;;;;;;;;5095508;28;20207;-62
2021/07/19 12:02:41;;;;;;;3.65;2.45;;;;;;;;;;5094987;28;20660;-62
2021/07/19 12:05:18;;;;;;;4.95;3.08;;;;;;;;;;5095083;28;20228;-62
2021/07/19 12:07:46;;;;;;;7.25;3.08;;;;;;;;;;5095298;28;20186;-62
2021/07/19 12:10:16;;;;;;;6.55;3.33;;;;;;;;;;5095229;28;20215;-63
2021/07/19 12:12:44;;;;;;;8.05;3.33;;;;;;;;;;5095008;28;20196;-62
2021/07/19 12:15:16;;;;;;;6.82;2.53;;;;;;;;;;5093386;28;20226;-62
2021/07/19 12:17:44;;;;;;;4.88;3.03;;;;;;;;;;5094742;28;20573;-62
2021/07/19 12:20:13;;;;;;;4.18;2.92;;;;;;;;;;5094976;28;20208;-62
2021/07/19 12:22:42;;;;;;;5.88;2.88;;;;;;;;;;5094989;28;20219;-62
2021/07/19 12:25:10;;;;;;;6.75;3.10;;;;;;;;;;5094611;28;20195;-62
2021/07/19 12:27:40;;;;;;;4.80;3.35;;;;;;;;;;5094342;28;20200;-61
2021/07/19 12:30:09;;;;;;;6.80;3.53;;;;;;;;;;5094513;28;20640;-62
2021/07/19 12:32:37;;;;;;;6.18;3.53;;;;;;;;;;5094988;28;20283;-61
2021/07/19 12:35:08;;;;;;;6.35;3.50;;;;;;;;;;5094538;28;20204;-63
2021/07/19 12:37:36;;;;;;;7.45;3.40;;;;;;;;;;5094552;28;20192;-63
2021/07/19 12:40:04;;;;;;;4.32;3.28;;;;;;;;;;5094282;28;20297;-62
2021/07/19 12:42:34;;;;;;;5.90;3.15;;;;;;;;;;5094347;28;20265;-62
2021/07/19 12:45:06;;;;;;;6.15;4.00;;;;;;;;;;5094472;28;20233;-61
2021/07/19 12:47:35;;;;;;;5.93;3.38;;;;;;;;;;5094448;28;20228;-61
2021/07/19 12:50:04;;;;;;;7.78;3.63;;;;;;;;;;5093873;28;20790;-61
2021/07/19 12:52:33;;;;;;;4.80;3.33;;;;;;;;;;5094263;28;20234;-62
2021/07/19 12:55:22;;;;;;;3.97;3.50;;;;;;;;;;5094270;28;20234;-62
2021/07/19 12:57:51;;;;;;;6.30;3.60;;;;;;;;;;5094121;28;20180;-62
2021/07/19 13:00:21;;;;;;;4.85;3.60;;;;;;;;;;5094239;28;20675;-61
2021/07/19 13:03:00;;;;;;;5.90;3.67;;;;;;;;;;5093865;28;20690;-62
2021/07/19 13:05:28;;;;;;;6.35;3.28;;;;;;;;;;5094052;28;20206;-62
2021/07/19 13:07:56;;;;;;;5.68;3.60;;;;;;;;;;5094052;28;20203;-62
2021/07/19 13:10:25;;;;;;;6.00;3.63;;;;;;;;;;5093915;28;20554;-61
2021/07/19 13:12:56;;;;;;;6.20;3.60;;;;;;;;;;5093736;28;20200;-61
2021/07/19 13:15:28;;;;;;;7.63;3.80;;;;;;;;;;5093874;28;20184;-62
2021/07/19 13:18:03;;;;;;;6.55;3.80;;;;;;;;;;5093943;28;20196;-62
2021/07/19 13:20:31;;;;;;;5.38;4.10;;;;;;;;;;5093624;28;20203;-61
2021/07/19 13:23:10;;;;;;;6.55;4.43;;;;;;;;;;5093612;28;20227;-61
2021/07/19 13:25:39;;;;;;;7.28;4.28;;;;;;;;;;5093436;28;20180;-63
2021/07/19 13:28:07;;;;;;;5.70;3.95;;;;;;;;;;5093234;28;20203;-62
2021/07/19 13:30:37;;;;;;;7.13;4.45;;;;;;;;;;5093341;28;20644;-61
2021/07/19 13:33:06;;;;;;;5.00;4.25;;;;;;;;;;5093502;28;20203;-62
2021/07/19 13:35:38;;;;;;;6.68;4.32;;;;;;;;;;5093136;28;20204;-62
2021/07/19 13:38:06;;;;;;;6.65;4.18;;;;;;;;;;5093154;28;20232;-61
2021/07/19 13:40:40;;;;;;;6.72;4.30;;;;;;;;;;5093558;28;20230;-62
2021/07/19 13:43:12;;;;;;;4.18;3.75;;;;;;;;;;5093212;28;20303;-62
2021/07/19 13:45:42;;;;;;;6.75;3.90;;;;;;;;;;5093151;28;20189;-61
2021/07/19 13:48:10;;;;;;;7.22;3.80;;;;;;;;;;5093362;28;20235;-62
2021/07/19 13:50:38;;;;;;;6.50;4.18;;;;;;;;;;5092606;28;20232;-62
2021/07/19 13:53:06;;;;;;;6.60;4.07;;;;;;;;;;5093235;28;20180;-61
2021/07/19 13:55:36;;;;;;;7.05;4.60;;;;;;;;;;5093424;28;20210;-61
2021/07/19 13:58:04;;;;;;;5.93;4.35;;;;;;;;;;5092663;28;20207;-61
2021/07/19 14:00:33;;;;;;;7.07;4.53;;;;;;;;;;5093058;28;20206;-61
2021/07/19 14:03:03;;;;;;;7.22;4.22;;;;;;;;;;5092661;28;20220;-61
2021/07/19 14:05:31;;;;;;;8.05;4.25;;;;;;;;;;5092831;28;20204;-62
2021/07/19 14:07:59;;;;;;;6.93;4.57;;;;;;;;;;5092955;28;20204;-61
2021/07/19 14:10:28;;;;;;;6.03;4.75;;;;;;;;;;5092884;28;20200;-62
2021/07/19 14:12:56;;;;;;;8.23;4.75;;;;;;;;;;5092620;28;20295;-62
2021/07/19 14:15:24;;;;;;;5.47;4.50;;;;;;;;;;5092788;28;20203;-62
2021/07/19 14:17:52;;;;;;;9.02;4.55;;;;;;;;;;5092378;28;20663;-63
2021/07/19 14:20:22;;;;;;;7.25;4.57;;;;;;;;;;5092508;28;20200;-62
2021/07/19 14:22:50;;;;;;;6.43;4.65;;;;;;;;;;5092328;28;20699;-63
2021/07/19 14:25:19;;;;;;;6.70;4.75;;;;;;;;;;5092737;28;20210;-62
2021/07/19 14:27:47;;;;;;;6.15;3.97;;;;;;;;;;5092519;28;20195;-61
2021/07/19 14:30:16;;;;;;;6.50;4.43;;;;;;;;;;5092693;28;20200;-61
2021/07/19 14:32:45;;;;;;;5.90;4.07;;;;;;;;;;5092677;28;20193;-62
2021/07/19 14:35:14;;;;;;;5.22;4.18;;;;;;;;;;5092493;28;20602;-63
2021/07/19 14:37:44;;;;;;;4.93;3.83;;;;;;;;;;5092519;28;20200;-62
2021/07/19 14:40:13;;;;;;;8.32;4.65;;;;;;;;;;5096222;28;20663;-61
2021/07/19 14:42:42;;;;;;;4.25;3.80;;;;;;;;;;5096514;28;20222;-61
2021/07/19 14:45:11;;;;;;;4.55;4.10;;;;;;;;;;5096600;28;20206;-63
2021/07/19 14:47:39;;;;;;;6.13;3.83;;;;;;;;;;5096555;28;20204;-62
2021/07/19 14:50:08;;;;;;;8.07;4.47;;;;;;;;;;5096488;28;20202;-62
2021/07/19 14:52:36;;;;;;;5.45;3.80;;;;;;;;;;5096069;28;20246;-62
2021/07/19 14:55:07;;;;;;;6.53;3.67;;;;;;;;;;5096281;28;20216;-61
2021/07/19 14:57:35;;;;;;;5.32;4.30;;;;;;;;;;5096253;28;20192;-62